sensor_id;sensor_type;location;lat;lon;timestamp;P1;durP1;ratioP1;P2;durP2;ratioP2
21901;SDS011;11115;46.038;14.612;2023-01-09T00:01:11;5.53;;;3.53;;
21901;SDS011;11115;46.038;14.612;2023-01-09T00:03:41;7.27;;;3.00;;
21901;SDS011;11115;46.038;14.612;2023-01-09T00:06:09;5.93;;;3.13;;
21901;SDS011;11115;46.038;14.612;2023-01-09T00:08:37;5.87;;;2.97;;
21901;SDS011;11115;46.038;14.612;2023-01-09T00:11:05;4.93;;;3.00;;
21901;SDS011;11115;46.038;14.612;2023-01-09T00:13:34;4.27;;;2.53;;
21901;SDS011;11115;46.038;14.612;2023-01-09T00:16:03;7.17;;;3.37;;
21901;SDS011;11115;46.038;14.612;2023-01-09T00:18:31;8.93;;;3.63;;
21901;SDS011;11115;46.038;14.612;2023-01-09T00:21:00;1.87;;;1.67;;
21901;SDS011;11115;46.038;14.612;2023-01-09T00:23:28;4.00;;;1.40;;
21901;SDS011;11115;46.038;14.612;2023-01-09T00:26:06;1.27;;;1.00;;
21901;SDS011;11115;46.038;14.612;2023-01-09T00:28:36;1.67;;;0.57;;
21901;SDS011;11115;46.038;14.612;2023-01-09T00:31:05;2.70;;;0.67;;
21901;SDS011;11115;46.038;14.612;2023-01-09T00:33:35;1.97;;;0.97;;
21901;SDS011;11115;46.038;14.612;2023-01-09T00:36:07;5.07;;;2.40;;
21901;SDS011;11115;46.038;14.612;2023-01-09T00:38:35;11.00;;;3.33;;
21901;SDS011;11115;46.038;14.612;2023-01-09T00:41:05;3.97;;;2.57;;
21901;SDS011;11115;46.038;14.612;2023-01-09T00:43:38;3.35;;;2.60;;
21901;SDS011;11115;46.038;14.612;2023-01-09T00:46:10;5.37;;;2.70;;
21901;SDS011;11115;46.038;14.612;2023-01-09T00:48:40;4.30;;;2.67;;
21901;SDS011;11115;46.038;14.612;2023-01-09T00:51:10;5.90;;;2.70;;
21901;SDS011;11115;46.038;14.612;2023-01-09T00:53:38;5.03;;;3.17;;
21901;SDS011;11115;46.038;14.612;2023-01-09T00:56:09;8.70;;;2.63;;
21901;SDS011;11115;46.038;14.612;2023-01-09T00:58:40;5.75;;;2.85;;
21901;SDS011;11115;46.038;14.612;2023-01-09T01:01:07;5.03;;;3.33;;
21901;SDS011;11115;46.038;14.612;2023-01-09T01:03:35;5.60;;;3.83;;
21901;SDS011;11115;46.038;14.612;2023-01-09T01:06:03;7.77;;;3.60;;
21901;SDS011;11115;46.038;14.612;2023-01-09T01:08:48;5.17;;;2.90;;
21901;SDS011;11115;46.038;14.612;2023-01-09T01:11:16;14.63;;;3.70;;
21901;SDS011;11115;46.038;14.612;2023-01-09T01:13:44;12.73;;;3.73;;
21901;SDS011;11115;46.038;14.612;2023-01-09T01:16:12;6.83;;;3.07;;
21901;SDS011;11115;46.038;14.612;2023-01-09T01:18:40;5.40;;;3.03;;
21901;SDS011;11115;46.038;14.612;2023-01-09T01:21:08;4.70;;;2.13;;
21901;SDS011;11115;46.038;14.612;2023-01-09T01:23:38;6.30;;;3.30;;
21901;SDS011;11115;46.038;14.612;2023-01-09T01:26:07;4.10;;;2.23;;
21901;SDS011;11115;46.038;14.612;2023-01-09T01:28:39;4.77;;;3.20;;
21901;SDS011;11115;46.038;14.612;2023-01-09T01:31:07;6.93;;;3.13;;
21901;SDS011;11115;46.038;14.612;2023-01-09T01:33:35;5.33;;;2.63;;
21901;SDS011;11115;46.038;14.612;2023-01-09T01:36:04;4.93;;;2.43;;
21901;SDS011;11115;46.038;14.612;2023-01-09T01:38:35;12.57;;;3.73;;
21901;SDS011;11115;46.038;14.612;2023-01-09T01:41:03;4.97;;;3.30;;
21901;SDS011;11115;46.038;14.612;2023-01-09T01:43:52;5.40;;;2.57;;
21901;SDS011;11115;46.038;14.612;2023-01-09T01:46:21;5.27;;;2.50;;
21901;SDS011;11115;46.038;14.612;2023-01-09T01:48:50;6.73;;;2.83;;
21901;SDS011;11115;46.038;14.612;2023-01-09T01:51:25;6.50;;;2.77;;
21901;SDS011;11115;46.038;14.612;2023-01-09T01:53:57;4.63;;;2.75;;
21901;SDS011;11115;46.038;14.612;2023-01-09T01:56:34;4.93;;;3.00;;
21901;SDS011;11115;46.038;14.612;2023-01-09T01:59:07;4.30;;;2.20;;
21901;SDS011;11115;46.038;14.612;2023-01-09T02:01:34;7.03;;;3.33;;
21901;SDS011;11115;46.038;14.612;2023-01-09T02:04:06;6.75;;;3.00;;
21901;SDS011;11115;46.038;14.612;2023-01-09T02:06:34;6.30;;;2.57;;
21901;SDS011;11115;46.038;14.612;2023-01-09T02:09:04;7.17;;;3.23;;
21901;SDS011;11115;46.038;14.612;2023-01-09T02:11:33;3.47;;;2.50;;
21901;SDS011;11115;46.038;14.612;2023-01-09T02:14:01;7.53;;;3.73;;
21901;SDS011;11115;46.038;14.612;2023-01-09T02:19:40;3.63;;;2.43;;
21901;SDS011;11115;46.038;14.612;2023-01-09T02:30:31;5.40;;;2.37;;
21901;SDS011;11115;46.038;14.612;2023-01-09T02:39:18;3.90;;;1.88;;
21901;SDS011;11115;46.038;14.612;2023-01-09T02:44:27;4.63;;;2.03;;
21901;SDS011;11115;46.038;14.612;2023-01-09T02:47:07;5.53;;;3.23;;
21901;SDS011;11115;46.038;14.612;2023-01-09T02:49:48;3.27;;;1.87;;
21901;SDS011;11115;46.038;14.612;2023-01-09T03:06:29;2.47;;;1.93;;
21901;SDS011;11115;46.038;14.612;2023-01-09T03:09:18;4.13;;;2.70;;
21901;SDS011;11115;46.038;14.612;2023-01-09T03:11:50;5.73;;;2.30;;
21901;SDS011;11115;46.038;14.612;2023-01-09T03:14:23;3.40;;;2.23;;
21901;SDS011;11115;46.038;14.612;2023-01-09T03:16:54;2.73;;;2.27;;
21901;SDS011;11115;46.038;14.612;2023-01-09T03:19:25;3.23;;;1.80;;
21901;SDS011;11115;46.038;14.612;2023-01-09T03:21:58;2.70;;;1.87;;
21901;SDS011;11115;46.038;14.612;2023-01-09T03:24:26;7.00;;;2.70;;
21901;SDS011;11115;46.038;14.612;2023-01-09T03:26:53;2.53;;;1.70;;
21901;SDS011;11115;46.038;14.612;2023-01-09T03:29:21;2.77;;;2.40;;
21901;SDS011;11115;46.038;14.612;2023-01-09T03:31:49;7.20;;;1.87;;
21901;SDS011;11115;46.038;14.612;2023-01-09T03:34:17;8.53;;;1.77;;
21901;SDS011;11115;46.038;14.612;2023-01-09T03:36:44;3.40;;;1.60;;
21901;SDS011;11115;46.038;14.612;2023-01-09T03:39:12;2.07;;;1.50;;
21901;SDS011;11115;46.038;14.612;2023-01-09T03:41:40;3.37;;;1.83;;
21901;SDS011;11115;46.038;14.612;2023-01-09T03:44:07;3.00;;;1.10;;
21901;SDS011;11115;46.038;14.612;2023-01-09T03:46:35;2.43;;;1.33;;
21901;SDS011;11115;46.038;14.612;2023-01-09T03:49:02;2.17;;;1.37;;
21901;SDS011;11115;46.038;14.612;2023-01-09T03:51:30;2.40;;;1.33;;
21901;SDS011;11115;46.038;14.612;2023-01-09T03:53:58;2.67;;;1.77;;
21901;SDS011;11115;46.038;14.612;2023-01-09T03:56:25;1.10;;;0.80;;
21901;SDS011;11115;46.038;14.612;2023-01-09T03:58:53;1.20;;;1.10;;
21901;SDS011;11115;46.038;14.612;2023-01-09T04:01:21;1.27;;;1.07;;
21901;SDS011;11115;46.038;14.612;2023-01-09T04:03:49;1.00;;;0.77;;
21901;SDS011;11115;46.038;14.612;2023-01-09T04:06:16;1.13;;;1.00;;
21901;SDS011;11115;46.038;14.612;2023-01-09T04:08:44;0.33;;;0.33;;
21901;SDS011;11115;46.038;14.612;2023-01-09T04:11:12;1.60;;;1.00;;
21901;SDS011;11115;46.038;14.612;2023-01-09T04:13:40;2.97;;;1.47;;
21901;SDS011;11115;46.038;14.612;2023-01-09T04:16:07;4.43;;;1.97;;
21901;SDS011;11115;46.038;14.612;2023-01-09T04:18:35;1.07;;;0.83;;
21901;SDS011;11115;46.038;14.612;2023-01-09T04:21:03;0.60;;;0.50;;
21901;SDS011;11115;46.038;14.612;2023-01-09T04:23:31;1.63;;;0.60;;
21901;SDS011;11115;46.038;14.612;2023-01-09T04:25:58;0.70;;;0.57;;
21901;SDS011;11115;46.038;14.612;2023-01-09T04:28:26;1.90;;;1.07;;
21901;SDS011;11115;46.038;14.612;2023-01-09T04:30:54;1.53;;;0.97;;
21901;SDS011;11115;46.038;14.612;2023-01-09T04:33:21;1.80;;;0.60;;
21901;SDS011;11115;46.038;14.612;2023-01-09T04:35:49;0.10;;;0.10;;
21901;SDS011;11115;46.038;14.612;2023-01-09T04:38:17;0.80;;;0.73;;
21901;SDS011;11115;46.038;14.612;2023-01-09T04:40:48;1.23;;;0.47;;
21901;SDS011;11115;46.038;14.612;2023-01-09T04:43:16;0.38;;;0.38;;
21901;SDS011;11115;46.038;14.612;2023-01-09T04:45:43;1.17;;;0.80;;
21901;SDS011;11115;46.038;14.612;2023-01-09T04:48:11;2.13;;;0.97;;
21901;SDS011;11115;46.038;14.612;2023-01-09T04:50:39;1.37;;;0.80;;
21901;SDS011;11115;46.038;14.612;2023-01-09T04:53:07;0.50;;;0.50;;
21901;SDS011;11115;46.038;14.612;2023-01-09T04:55:34;2.23;;;0.93;;
21901;SDS011;11115;46.038;14.612;2023-01-09T04:58:02;5.10;;;0.80;;
21901;SDS011;11115;46.038;14.612;2023-01-09T05:00:30;2.37;;;1.50;;
21901;SDS011;11115;46.038;14.612;2023-01-09T05:02:58;2.17;;;0.70;;
21901;SDS011;11115;46.038;14.612;2023-01-09T05:05:28;0.67;;;0.67;;
21901;SDS011;11115;46.038;14.612;2023-01-09T05:07:55;0.70;;;0.70;;
21901;SDS011;11115;46.038;14.612;2023-01-09T05:10:23;2.10;;;0.63;;
21901;SDS011;11115;46.038;14.612;2023-01-09T05:12:51;0.27;;;0.27;;
21901;SDS011;11115;46.038;14.612;2023-01-09T05:15:18;0.77;;;0.77;;
21901;SDS011;11115;46.038;14.612;2023-01-09T05:17:46;0.50;;;0.40;;
21901;SDS011;11115;46.038;14.612;2023-01-09T05:20:14;0.73;;;0.20;;
21901;SDS011;11115;46.038;14.612;2023-01-09T05:22:42;0.30;;;0.30;;
21901;SDS011;11115;46.038;14.612;2023-01-09T05:25:10;0.57;;;0.57;;
21901;SDS011;11115;46.038;14.612;2023-01-09T05:27:37;0.10;;;0.10;;
21901;SDS011;11115;46.038;14.612;2023-01-09T05:30:05;0.70;;;0.50;;
21901;SDS011;11115;46.038;14.612;2023-01-09T05:32:33;0.50;;;0.17;;
21901;SDS011;11115;46.038;14.612;2023-01-09T05:35:01;0.20;;;0.20;;
21901;SDS011;11115;46.038;14.612;2023-01-09T05:37:29;0.87;;;0.40;;
21901;SDS011;11115;46.038;14.612;2023-01-09T05:39:56;1.03;;;0.83;;
21901;SDS011;11115;46.038;14.612;2023-01-09T05:42:24;1.17;;;0.87;;
21901;SDS011;11115;46.038;14.612;2023-01-09T05:44:52;4.83;;;1.00;;
21901;SDS011;11115;46.038;14.612;2023-01-09T05:47:20;0.63;;;0.63;;
21901;SDS011;11115;46.038;14.612;2023-01-09T05:49:47;3.07;;;1.37;;
21901;SDS011;11115;46.038;14.612;2023-01-09T05:52:15;3.63;;;1.17;;
21901;SDS011;11115;46.038;14.612;2023-01-09T05:54:42;0.73;;;0.57;;
21901;SDS011;11115;46.038;14.612;2023-01-09T05:57:10;1.07;;;0.93;;
21901;SDS011;11115;46.038;14.612;2023-01-09T05:59:38;1.40;;;1.10;;
21901;SDS011;11115;46.038;14.612;2023-01-09T06:02:05;1.90;;;0.80;;
21901;SDS011;11115;46.038;14.612;2023-01-09T06:04:33;1.00;;;0.87;;
21901;SDS011;11115;46.038;14.612;2023-01-09T06:07:01;0.67;;;0.50;;
21901;SDS011;11115;46.038;14.612;2023-01-09T06:09:29;0.57;;;0.57;;
21901;SDS011;11115;46.038;14.612;2023-01-09T06:11:57;0.77;;;0.50;;
21901;SDS011;11115;46.038;14.612;2023-01-09T06:14:25;0.80;;;0.67;;
21901;SDS011;11115;46.038;14.612;2023-01-09T06:16:52;1.53;;;1.00;;
21901;SDS011;11115;46.038;14.612;2023-01-09T06:19:20;0.77;;;0.73;;
21901;SDS011;11115;46.038;14.612;2023-01-09T06:21:48;0.60;;;0.50;;
21901;SDS011;11115;46.038;14.612;2023-01-09T06:24:16;5.40;;;1.17;;
21901;SDS011;11115;46.038;14.612;2023-01-09T06:26:43;3.37;;;1.33;;
21901;SDS011;11115;46.038;14.612;2023-01-09T06:29:11;14.17;;;4.37;;
21901;SDS011;11115;46.038;14.612;2023-01-09T06:31:39;2.97;;;1.50;;
21901;SDS011;11115;46.038;14.612;2023-01-09T06:34:06;1.63;;;0.70;;
21901;SDS011;11115;46.038;14.612;2023-01-09T06:36:34;6.90;;;1.63;;
21901;SDS011;11115;46.038;14.612;2023-01-09T06:39:02;7.57;;;2.33;;
21901;SDS011;11115;46.038;14.612;2023-01-09T06:41:29;15.17;;;3.50;;
21901;SDS011;11115;46.038;14.612;2023-01-09T06:43:57;22.33;;;5.13;;
21901;SDS011;11115;46.038;14.612;2023-01-09T06:46:25;40.80;;;9.30;;
21901;SDS011;11115;46.038;14.612;2023-01-09T06:48:52;35.53;;;6.90;;
21901;SDS011;11115;46.038;14.612;2023-01-09T06:51:20;13.17;;;4.10;;
21901;SDS011;11115;46.038;14.612;2023-01-09T06:53:48;19.73;;;4.27;;
21901;SDS011;11115;46.038;14.612;2023-01-09T06:56:16;15.70;;;2.83;;
21901;SDS011;11115;46.038;14.612;2023-01-09T06:58:45;3.07;;;1.80;;
21901;SDS011;11115;46.038;14.612;2023-01-09T07:01:13;5.17;;;1.43;;
21901;SDS011;11115;46.038;14.612;2023-01-09T07:03:40;26.57;;;7.83;;
21901;SDS011;11115;46.038;14.612;2023-01-09T07:06:08;17.77;;;4.70;;
21901;SDS011;11115;46.038;14.612;2023-01-09T07:08:36;11.67;;;4.07;;
21901;SDS011;11115;46.038;14.612;2023-01-09T07:11:04;19.87;;;4.33;;
21901;SDS011;11115;46.038;14.612;2023-01-09T07:13:32;8.87;;;1.90;;
21901;SDS011;11115;46.038;14.612;2023-01-09T07:15:59;17.33;;;3.47;;
21901;SDS011;11115;46.038;14.612;2023-01-09T07:18:28;3.90;;;2.23;;
21901;SDS011;11115;46.038;14.612;2023-01-09T07:20:56;8.00;;;1.87;;
21901;SDS011;11115;46.038;14.612;2023-01-09T07:23:23;2.47;;;2.00;;
21901;SDS011;11115;46.038;14.612;2023-01-09T07:25:51;4.43;;;1.93;;
21901;SDS011;11115;46.038;14.612;2023-01-09T07:28:19;5.50;;;2.63;;
21901;SDS011;11115;46.038;14.612;2023-01-09T07:30:47;3.03;;;1.87;;
21901;SDS011;11115;46.038;14.612;2023-01-09T07:33:15;3.53;;;1.90;;
21901;SDS011;11115;46.038;14.612;2023-01-09T07:35:43;1.97;;;1.20;;
21901;SDS011;11115;46.038;14.612;2023-01-09T07:38:10;3.23;;;2.07;;
21901;SDS011;11115;46.038;14.612;2023-01-09T07:40:38;2.53;;;1.60;;
21901;SDS011;11115;46.038;14.612;2023-01-09T07:43:06;4.20;;;1.83;;
21901;SDS011;11115;46.038;14.612;2023-01-09T07:45:33;1.93;;;1.53;;
21901;SDS011;11115;46.038;14.612;2023-01-09T07:48:01;4.33;;;1.87;;
21901;SDS011;11115;46.038;14.612;2023-01-09T07:50:29;3.37;;;2.07;;
21901;SDS011;11115;46.038;14.612;2023-01-09T07:52:56;10.93;;;2.30;;
21901;SDS011;11115;46.038;14.612;2023-01-09T07:55:24;3.67;;;1.50;;
21901;SDS011;11115;46.038;14.612;2023-01-09T07:57:52;8.60;;;1.80;;
21901;SDS011;11115;46.038;14.612;2023-01-09T08:00:20;3.13;;;1.33;;
21901;SDS011;11115;46.038;14.612;2023-01-09T08:02:51;4.43;;;2.07;;
21901;SDS011;11115;46.038;14.612;2023-01-09T08:05:19;1.77;;;1.27;;
21901;SDS011;11115;46.038;14.612;2023-01-09T08:07:48;3.73;;;1.73;;
21901;SDS011;11115;46.038;14.612;2023-01-09T08:10:16;4.27;;;2.43;;
21901;SDS011;11115;46.038;14.612;2023-01-09T08:12:45;5.30;;;3.20;;
21901;SDS011;11115;46.038;14.612;2023-01-09T08:15:14;12.83;;;4.27;;
21901;SDS011;11115;46.038;14.612;2023-01-09T08:17:43;9.03;;;4.07;;
21901;SDS011;11115;46.038;14.612;2023-01-09T08:20:13;3.97;;;2.40;;
21901;SDS011;11115;46.038;14.612;2023-01-09T08:22:44;4.90;;;2.30;;
21901;SDS011;11115;46.038;14.612;2023-01-09T08:25:16;4.93;;;2.40;;
21901;SDS011;11115;46.038;14.612;2023-01-09T08:27:44;3.57;;;2.57;;
21901;SDS011;11115;46.038;14.612;2023-01-09T08:30:12;5.93;;;1.97;;
21901;SDS011;11115;46.038;14.612;2023-01-09T08:32:40;3.57;;;1.70;;
21901;SDS011;11115;46.038;14.612;2023-01-09T08:35:09;5.47;;;2.00;;
21901;SDS011;11115;46.038;14.612;2023-01-09T08:37:36;3.10;;;1.57;;
21901;SDS011;11115;46.038;14.612;2023-01-09T08:40:04;1.67;;;1.57;;
21901;SDS011;11115;46.038;14.612;2023-01-09T08:42:32;2.97;;;1.90;;
21901;SDS011;11115;46.038;14.612;2023-01-09T08:45:17;4.33;;;1.90;;
21901;SDS011;11115;46.038;14.612;2023-01-09T08:48:03;3.87;;;1.90;;
21901;SDS011;11115;46.038;14.612;2023-01-09T08:50:31;3.63;;;2.07;;
21901;SDS011;11115;46.038;14.612;2023-01-09T08:52:58;2.07;;;1.60;;
21901;SDS011;11115;46.038;14.612;2023-01-09T08:55:26;2.57;;;1.73;;
21901;SDS011;11115;46.038;14.612;2023-01-09T08:57:55;7.63;;;1.80;;
21901;SDS011;11115;46.038;14.612;2023-01-09T09:00:23;4.43;;;1.73;;
21901;SDS011;11115;46.038;14.612;2023-01-09T09:02:51;7.47;;;2.10;;
21901;SDS011;11115;46.038;14.612;2023-01-09T09:05:27;2.53;;;1.67;;
21901;SDS011;11115;46.038;14.612;2023-01-09T09:07:56;2.23;;;1.30;;
21901;SDS011;11115;46.038;14.612;2023-01-09T09:10:26;2.03;;;1.30;;
21901;SDS011;11115;46.038;14.612;2023-01-09T09:12:55;1.33;;;1.10;;
21901;SDS011;11115;46.038;14.612;2023-01-09T09:15:24;1.87;;;1.37;;
21901;SDS011;11115;46.038;14.612;2023-01-09T09:17:56;3.72;;;1.38;;
21901;SDS011;11115;46.038;14.612;2023-01-09T09:20:29;3.20;;;1.23;;
21901;SDS011;11115;46.038;14.612;2023-01-09T09:22:58;1.90;;;1.53;;
21901;SDS011;11115;46.038;14.612;2023-01-09T09:25:26;1.00;;;0.90;;
21901;SDS011;11115;46.038;14.612;2023-01-09T09:27:53;4.67;;;1.83;;
21901;SDS011;11115;46.038;14.612;2023-01-09T09:30:22;3.73;;;2.00;;
21901;SDS011;11115;46.038;14.612;2023-01-09T09:32:50;5.23;;;2.23;;
21901;SDS011;11115;46.038;14.612;2023-01-09T09:35:18;2.70;;;1.77;;
21901;SDS011;11115;46.038;14.612;2023-01-09T09:37:57;5.10;;;2.07;;
21901;SDS011;11115;46.038;14.612;2023-01-09T09:40:50;6.17;;;2.27;;
21901;SDS011;11115;46.038;14.612;2023-01-09T09:49:27;3.07;;;2.20;;
21901;SDS011;11115;46.038;14.612;2023-01-09T09:52:26;3.30;;;1.73;;
21901;SDS011;11115;46.038;14.612;2023-01-09T09:55:04;3.70;;;1.70;;
21901;SDS011;11115;46.038;14.612;2023-01-09T09:57:43;4.03;;;2.38;;
21901;SDS011;11115;46.038;14.612;2023-01-09T10:00:22;7.53;;;1.60;;
21901;SDS011;11115;46.038;14.612;2023-01-09T10:05:37;3.57;;;2.00;;
21901;SDS011;11115;46.038;14.612;2023-01-09T10:10:51;4.47;;;2.30;;
21901;SDS011;11115;46.038;14.612;2023-01-09T10:13:22;5.63;;;2.50;;
21901;SDS011;11115;46.038;14.612;2023-01-09T10:16:30;2.63;;;1.77;;
21901;SDS011;11115;46.038;14.612;2023-01-09T10:25:00;4.03;;;1.75;;
21901;SDS011;11115;46.038;14.612;2023-01-09T10:27:57;1.60;;;1.50;;
21901;SDS011;11115;46.038;14.612;2023-01-09T10:38:38;4.10;;;1.73;;
21901;SDS011;11115;46.038;14.612;2023-01-09T10:43:43;1.98;;;1.30;;
21901;SDS011;11115;46.038;14.612;2023-01-09T10:46:18;5.57;;;1.93;;
21901;SDS011;11115;46.038;14.612;2023-01-09T10:48:53;4.20;;;2.70;;
21901;SDS011;11115;46.038;14.612;2023-01-09T10:51:36;5.53;;;2.33;;
21901;SDS011;11115;46.038;14.612;2023-01-09T10:54:12;4.97;;;1.63;;
21901;SDS011;11115;46.038;14.612;2023-01-09T10:56:44;1.43;;;1.30;;
21901;SDS011;11115;46.038;14.612;2023-01-09T10:59:20;3.30;;;1.53;;
21901;SDS011;11115;46.038;14.612;2023-01-09T11:01:48;4.57;;;2.27;;
21901;SDS011;11115;46.038;14.612;2023-01-09T11:06:47;5.50;;;2.03;;
21901;SDS011;11115;46.038;14.612;2023-01-09T11:09:19;3.97;;;1.57;;
21901;SDS011;11115;46.038;14.612;2023-01-09T11:11:46;4.67;;;2.63;;
21901;SDS011;11115;46.038;14.612;2023-01-09T11:17:02;4.43;;;1.90;;
21901;SDS011;11115;46.038;14.612;2023-01-09T11:19:30;4.57;;;1.97;;
21901;SDS011;11115;46.038;14.612;2023-01-09T11:22:14;3.97;;;2.13;;
21901;SDS011;11115;46.038;14.612;2023-01-09T11:24:43;3.57;;;1.37;;
21901;SDS011;11115;46.038;14.612;2023-01-09T11:29:39;5.67;;;1.70;;
21901;SDS011;11115;46.038;14.612;2023-01-09T11:32:21;2.10;;;1.43;;
21901;SDS011;11115;46.038;14.612;2023-01-09T11:34:50;4.53;;;1.90;;
21901;SDS011;11115;46.038;14.612;2023-01-09T11:37:21;9.33;;;1.50;;
21901;SDS011;11115;46.038;14.612;2023-01-09T11:39:52;0.73;;;0.73;;
21901;SDS011;11115;46.038;14.612;2023-01-09T11:42:24;1.38;;;1.05;;
21901;SDS011;11115;46.038;14.612;2023-01-09T11:47:46;2.10;;;1.23;;
21901;SDS011;11115;46.038;14.612;2023-01-09T11:50:17;1.20;;;0.77;;
21901;SDS011;11115;46.038;14.612;2023-01-09T11:55:45;1.60;;;0.57;;
21901;SDS011;11115;46.038;14.612;2023-01-09T11:58:19;1.23;;;0.87;;
21901;SDS011;11115;46.038;14.612;2023-01-09T12:06:56;2.00;;;1.33;;
21901;SDS011;11115;46.038;14.612;2023-01-09T12:09:13;0.83;;;0.73;;
21901;SDS011;11115;46.038;14.612;2023-01-09T12:18:07;1.17;;;0.50;;
21901;SDS011;11115;46.038;14.612;2023-01-09T12:23:49;1.03;;;0.93;;
21901;SDS011;11115;46.038;14.612;2023-01-09T12:26:24;1.57;;;0.97;;
21901;SDS011;11115;46.038;14.612;2023-01-09T12:51:33;1.43;;;1.07;;
21901;SDS011;11115;46.038;14.612;2023-01-09T12:56:56;4.53;;;0.80;;
21901;SDS011;11115;46.038;14.612;2023-01-09T12:59:31;2.57;;;1.10;;
21901;SDS011;11115;46.038;14.612;2023-01-09T13:02:21;3.27;;;1.37;;
21901;SDS011;11115;46.038;14.612;2023-01-09T13:04:59;1.17;;;0.68;;
21901;SDS011;11115;46.038;14.612;2023-01-09T13:07:34;1.57;;;1.20;;
21901;SDS011;11115;46.038;14.612;2023-01-09T13:13:00;2.40;;;1.57;;
21901;SDS011;11115;46.038;14.612;2023-01-09T13:15:34;0.70;;;0.70;;
21901;SDS011;11115;46.038;14.612;2023-01-09T13:18:22;2.10;;;1.27;;
21901;SDS011;11115;46.038;14.612;2023-01-09T13:20:52;0.90;;;0.90;;
21901;SDS011;11115;46.038;14.612;2023-01-09T13:26:22;2.93;;;1.73;;
21901;SDS011;11115;46.038;14.612;2023-01-09T13:29:06;1.10;;;1.00;;
21901;SDS011;11115;46.038;14.612;2023-01-09T13:34:20;0.97;;;0.90;;
21901;SDS011;11115;46.038;14.612;2023-01-09T13:36:51;1.83;;;1.38;;
21901;SDS011;11115;46.038;14.612;2023-01-09T13:39:25;0.90;;;0.90;;
21901;SDS011;11115;46.038;14.612;2023-01-09T13:41:57;1.17;;;0.90;;
21901;SDS011;11115;46.038;14.612;2023-01-09T13:44:45;1.70;;;1.33;;
21901;SDS011;11115;46.038;14.612;2023-01-09T13:47:18;2.50;;;1.40;;
21901;SDS011;11115;46.038;14.612;2023-01-09T13:59:58;1.50;;;0.80;;
21901;SDS011;11115;46.038;14.612;2023-01-09T14:05:15;1.50;;;1.20;;
21901;SDS011;11115;46.038;14.612;2023-01-09T14:08:03;2.70;;;1.27;;
21901;SDS011;11115;46.038;14.612;2023-01-09T14:13:36;4.73;;;1.23;;
21901;SDS011;11115;46.038;14.612;2023-01-09T14:16:27;2.80;;;1.20;;
21901;SDS011;11115;46.038;14.612;2023-01-09T14:21:53;2.67;;;1.63;;
21901;SDS011;11115;46.038;14.612;2023-01-09T14:24:25;1.37;;;1.27;;
21901;SDS011;11115;46.038;14.612;2023-01-09T14:26:54;1.50;;;1.00;;
21901;SDS011;11115;46.038;14.612;2023-01-09T14:35:02;0.10;;;0.00;;
21901;SDS011;11115;46.038;14.612;2023-01-09T14:37:38;0.10;;;0.10;;
21901;SDS011;11115;46.038;14.612;2023-01-09T14:40:13;0.10;;;0.10;;
21901;SDS011;11115;46.038;14.612;2023-01-09T14:42:45;0.00;;;0.00;;
21901;SDS011;11115;46.038;14.612;2023-01-09T14:45:22;0.00;;;0.00;;
21901;SDS011;11115;46.038;14.612;2023-01-09T14:47:55;2.13;;;0.30;;
21901;SDS011;11115;46.038;14.612;2023-01-09T14:50:28;0.00;;;0.00;;
21901;SDS011;11115;46.038;14.612;2023-01-09T14:55:59;0.27;;;0.10;;
21901;SDS011;11115;46.038;14.612;2023-01-09T14:58:32;0.00;;;0.00;;
21901;SDS011;11115;46.038;14.612;2023-01-09T15:03:41;0.00;;;0.00;;
21901;SDS011;11115;46.038;14.612;2023-01-09T15:06:44;0.00;;;0.00;;
21901;SDS011;11115;46.038;14.612;2023-01-09T15:09:14;0.10;;;0.10;;
21901;SDS011;11115;46.038;14.612;2023-01-09T15:11:44;0.20;;;0.03;;
21901;SDS011;11115;46.038;14.612;2023-01-09T15:17:21;0.00;;;0.00;;
21901;SDS011;11115;46.038;14.612;2023-01-09T15:19:59;0.00;;;0.00;;
21901;SDS011;11115;46.038;14.612;2023-01-09T15:22:33;0.20;;;0.10;;
21901;SDS011;11115;46.038;14.612;2023-01-09T15:25:22;0.00;;;0.00;;
21901;SDS011;11115;46.038;14.612;2023-01-09T15:30:58;0.00;;;0.00;;
21901;SDS011;11115;46.038;14.612;2023-01-09T15:33:30;0.13;;;0.13;;
21901;SDS011;11115;46.038;14.612;2023-01-09T15:36:06;0.10;;;0.10;;
21901;SDS011;11115;46.038;14.612;2023-01-09T15:38:40;0.65;;;0.20;;
21901;SDS011;11115;46.038;14.612;2023-01-09T15:41:10;0.10;;;0.07;;
21901;SDS011;11115;46.038;14.612;2023-01-09T15:44:01;0.17;;;0.17;;
21901;SDS011;11115;46.038;14.612;2023-01-09T15:46:30;0.20;;;0.20;;
21901;SDS011;11115;46.038;14.612;2023-01-09T15:48:58;0.10;;;0.10;;
21901;SDS011;11115;46.038;14.612;2023-01-09T15:51:26;0.00;;;0.00;;
21901;SDS011;11115;46.038;14.612;2023-01-09T15:53:54;1.07;;;0.10;;
21901;SDS011;11115;46.038;14.612;2023-01-09T15:56:26;0.13;;;0.13;;
21901;SDS011;11115;46.038;14.612;2023-01-09T15:58:59;1.10;;;0.10;;
21901;SDS011;11115;46.038;14.612;2023-01-09T16:06:36;0.10;;;0.10;;
21901;SDS011;11115;46.038;14.612;2023-01-09T16:09:14;0.10;;;0.10;;
21901;SDS011;11115;46.038;14.612;2023-01-09T16:11:45;0.00;;;0.00;;
21901;SDS011;11115;46.038;14.612;2023-01-09T16:14:18;0.00;;;0.00;;
21901;SDS011;11115;46.038;14.612;2023-01-09T16:16:49;0.50;;;0.10;;
21901;SDS011;11115;46.038;14.612;2023-01-09T16:24:47;0.10;;;0.10;;
21901;SDS011;11115;46.038;14.612;2023-01-09T16:27:22;0.20;;;0.20;;
21901;SDS011;11115;46.038;14.612;2023-01-09T16:30:21;0.20;;;0.20;;
21901;SDS011;11115;46.038;14.612;2023-01-09T16:32:53;0.47;;;0.10;;
21901;SDS011;11115;46.038;14.612;2023-01-09T16:35:21;0.07;;;0.07;;
21901;SDS011;11115;46.038;14.612;2023-01-09T16:37:51;0.10;;;0.00;;
21901;SDS011;11115;46.038;14.612;2023-01-09T16:40:23;0.10;;;0.10;;
21901;SDS011;11115;46.038;14.612;2023-01-09T16:43:01;0.13;;;0.13;;
21901;SDS011;11115;46.038;14.612;2023-01-09T16:45:39;0.10;;;0.10;;
21901;SDS011;11115;46.038;14.612;2023-01-09T16:50:40;0.47;;;0.40;;
21901;SDS011;11115;46.038;14.612;2023-01-09T16:53:16;0.87;;;0.57;;
21901;SDS011;11115;46.038;14.612;2023-01-09T16:55:49;1.20;;;0.50;;
21901;SDS011;11115;46.038;14.612;2023-01-09T16:58:29;6.13;;;2.30;;
21901;SDS011;11115;46.038;14.612;2023-01-09T17:00:58;0.23;;;0.23;;
21901;SDS011;11115;46.038;14.612;2023-01-09T17:03:26;0.10;;;0.10;;
21901;SDS011;11115;46.038;14.612;2023-01-09T17:05:54;0.50;;;0.37;;
21901;SDS011;11115;46.038;14.612;2023-01-09T17:08:24;0.23;;;0.20;;
21901;SDS011;11115;46.038;14.612;2023-01-09T17:10:52;0.30;;;0.30;;
21901;SDS011;11115;46.038;14.612;2023-01-09T17:13:22;0.77;;;0.20;;
21901;SDS011;11115;46.038;14.612;2023-01-09T17:15:51;0.00;;;0.00;;
21901;SDS011;11115;46.038;14.612;2023-01-09T17:18:21;0.00;;;0.00;;
21901;SDS011;11115;46.038;14.612;2023-01-09T17:20:50;0.03;;;0.03;;
21901;SDS011;11115;46.038;14.612;2023-01-09T17:23:20;0.10;;;0.10;;
21901;SDS011;11115;46.038;14.612;2023-01-09T17:25:52;0.00;;;0.00;;
21901;SDS011;11115;46.038;14.612;2023-01-09T17:28:47;0.37;;;0.37;;
21901;SDS011;11115;46.038;14.612;2023-01-09T17:31:16;0.03;;;0.03;;
21901;SDS011;11115;46.038;14.612;2023-01-09T17:33:44;0.00;;;0.00;;
21901;SDS011;11115;46.038;14.612;2023-01-09T17:36:28;0.00;;;0.00;;
21901;SDS011;11115;46.038;14.612;2023-01-09T17:39:00;0.10;;;0.03;;
21901;SDS011;11115;46.038;14.612;2023-01-09T17:41:29;0.00;;;0.00;;
21901;SDS011;11115;46.038;14.612;2023-01-09T17:43:58;0.80;;;0.47;;
21901;SDS011;11115;46.038;14.612;2023-01-09T17:46:29;0.10;;;0.10;;
21901;SDS011;11115;46.038;14.612;2023-01-09T17:49:03;4.37;;;0.77;;
21901;SDS011;11115;46.038;14.612;2023-01-09T17:51:31;1.23;;;0.77;;